sensor_id;sensor_type;location;lat;lon;timestamp;P1;durP1;ratioP1;P2;durP2;ratioP2
78336;SDS011;67610;51.588;7.002;2023-02-08T00:03:16;13.98;;;6.90;;
78336;SDS011;67610;51.588;7.002;2023-02-08T00:05:41;16.75;;;6.43;;
78336;SDS011;67610;51.588;7.002;2023-02-08T00:08:07;17.75;;;7.63;;
78336;SDS011;67610;51.588;7.002;2023-02-08T00:10:33;20.27;;;8.57;;
78336;SDS011;67610;51.588;7.002;2023-02-08T00:13:00;16.23;;;7.45;;
78336;SDS011;67610;51.588;7.002;2023-02-08T00:15:26;20.63;;;8.40;;
78336;SDS011;67610;51.588;7.002;2023-02-08T00:17:51;18.27;;;7.25;;
78336;SDS011;67610;51.588;7.002;2023-02-08T00:20:16;19.23;;;8.30;;
78336;SDS011;67610;51.588;7.002;2023-02-08T00:22:42;17.80;;;7.38;;
78336;SDS011;67610;51.588;7.002;2023-02-08T00:25:07;21.38;;;7.65;;
78336;SDS011;67610;51.588;7.002;2023-02-08T00:27:33;20.33;;;7.65;;
78336;SDS011;67610;51.588;7.002;2023-02-08T00:29:58;22.40;;;8.88;;
78336;SDS011;67610;51.588;7.002;2023-02-08T00:32:24;22.05;;;8.27;;
78336;SDS011;67610;51.588;7.002;2023-02-08T00:34:49;19.58;;;7.68;;
78336;SDS011;67610;51.588;7.002;2023-02-08T00:37:15;18.85;;;7.72;;
78336;SDS011;67610;51.588;7.002;2023-02-08T00:39:41;17.92;;;7.10;;
78336;SDS011;67610;51.588;7.002;2023-02-08T00:42:06;15.23;;;6.82;;
78336;SDS011;67610;51.588;7.002;2023-02-08T00:44:32;18.80;;;7.82;;
78336;SDS011;67610;51.588;7.002;2023-02-08T00:46:57;17.98;;;7.53;;
78336;SDS011;67610;51.588;7.002;2023-02-08T00:49:23;14.13;;;6.97;;
78336;SDS011;67610;51.588;7.002;2023-02-08T00:51:49;14.50;;;6.80;;
78336;SDS011;67610;51.588;7.002;2023-02-08T00:54:15;15.23;;;7.18;;
78336;SDS011;67610;51.588;7.002;2023-02-08T00:56:42;12.68;;;6.78;;
78336;SDS011;67610;51.588;7.002;2023-02-08T00:59:08;20.30;;;8.52;;
78336;SDS011;67610;51.588;7.002;2023-02-08T01:01:33;14.52;;;6.47;;
78336;SDS011;67610;51.588;7.002;2023-02-08T01:03:59;15.93;;;6.68;;
78336;SDS011;67610;51.588;7.002;2023-02-08T01:06:24;14.43;;;7.20;;
78336;SDS011;67610;51.588;7.002;2023-02-08T01:08:49;14.32;;;7.32;;
78336;SDS011;67610;51.588;7.002;2023-02-08T01:11:16;11.95;;;6.13;;
78336;SDS011;67610;51.588;7.002;2023-02-08T01:13:46;14.48;;;7.00;;
78336;SDS011;67610;51.588;7.002;2023-02-08T01:16:13;15.80;;;6.80;;
78336;SDS011;67610;51.588;7.002;2023-02-08T01:18:44;13.63;;;7.20;;
78336;SDS011;67610;51.588;7.002;2023-02-08T01:21:13;14.50;;;6.43;;
78336;SDS011;67610;51.588;7.002;2023-02-08T01:23:41;15.00;;;6.63;;
78336;SDS011;67610;51.588;7.002;2023-02-08T01:26:07;14.35;;;6.50;;
78336;SDS011;67610;51.588;7.002;2023-02-08T01:28:34;12.52;;;6.43;;
78336;SDS011;67610;51.588;7.002;2023-02-08T01:31:04;13.02;;;6.53;;
78336;SDS011;67610;51.588;7.002;2023-02-08T01:33:34;16.17;;;7.30;;
78336;SDS011;67610;51.588;7.002;2023-02-08T01:35:59;14.95;;;7.05;;
78336;SDS011;67610;51.588;7.002;2023-02-08T01:38:25;11.77;;;6.28;;
78336;SDS011;67610;51.588;7.002;2023-02-08T01:40:51;12.40;;;6.75;;
78336;SDS011;67610;51.588;7.002;2023-02-08T01:43:24;13.40;;;6.82;;
78336;SDS011;67610;51.588;7.002;2023-02-08T01:45:54;16.05;;;7.75;;
78336;SDS011;67610;51.588;7.002;2023-02-08T01:48:26;15.65;;;7.38;;
78336;SDS011;67610;51.588;7.002;2023-02-08T01:53:24;14.75;;;7.35;;
78336;SDS011;67610;51.588;7.002;2023-02-08T01:55:53;13.90;;;6.95;;
78336;SDS011;67610;51.588;7.002;2023-02-08T01:58:21;13.45;;;7.03;;
78336;SDS011;67610;51.588;7.002;2023-02-08T02:00:49;12.07;;;6.90;;
78336;SDS011;67610;51.588;7.002;2023-02-08T02:03:15;13.80;;;7.15;;
78336;SDS011;67610;51.588;7.002;2023-02-08T02:05:44;12.65;;;6.82;;
78336;SDS011;67610;51.588;7.002;2023-02-08T02:08:13;13.13;;;6.13;;
78336;SDS011;67610;51.588;7.002;2023-02-08T02:10:38;12.82;;;6.28;;
78336;SDS011;67610;51.588;7.002;2023-02-08T02:13:06;12.32;;;6.40;;
78336;SDS011;67610;51.588;7.002;2023-02-08T02:15:41;13.23;;;6.05;;
78336;SDS011;67610;51.588;7.002;2023-02-08T02:18:07;11.50;;;6.22;;
78336;SDS011;67610;51.588;7.002;2023-02-08T02:29:05;9.68;;;5.05;;
78336;SDS011;67610;51.588;7.002;2023-02-08T02:47:48;10.50;;;4.82;;
78336;SDS011;67610;51.588;7.002;2023-02-08T02:50:27;10.15;;;4.55;;
78336;SDS011;67610;51.588;7.002;2023-02-08T02:52:58;10.00;;;5.22;;
78336;SDS011;67610;51.588;7.002;2023-02-08T02:55:29;9.55;;;4.70;;
78336;SDS011;67610;51.588;7.002;2023-02-08T02:57:59;8.55;;;4.60;;
78336;SDS011;67610;51.588;7.002;2023-02-08T03:00:26;11.60;;;4.80;;
78336;SDS011;67610;51.588;7.002;2023-02-08T03:02:55;9.60;;;5.28;;
78336;SDS011;67610;51.588;7.002;2023-02-08T03:05:23;10.73;;;4.70;;
78336;SDS011;67610;51.588;7.002;2023-02-08T03:19:20;9.23;;;4.22;;
78336;SDS011;67610;51.588;7.002;2023-02-08T03:21:59;10.55;;;4.78;;
78336;SDS011;67610;51.588;7.002;2023-02-08T03:32:09;10.82;;;5.05;;
78336;SDS011;67610;51.588;7.002;2023-02-08T03:40:19;8.18;;;4.40;;
78336;SDS011;67610;51.588;7.002;2023-02-08T03:42:49;9.82;;;5.03;;
78336;SDS011;67610;51.588;7.002;2023-02-08T03:45:29;9.07;;;4.20;;
78336;SDS011;67610;51.588;7.002;2023-02-08T03:48:00;9.52;;;4.35;;
78336;SDS011;67610;51.588;7.002;2023-02-08T03:50:30;7.97;;;4.60;;
78336;SDS011;67610;51.588;7.002;2023-02-08T03:52:58;10.43;;;5.13;;
78336;SDS011;67610;51.588;7.002;2023-02-08T03:55:26;9.45;;;4.72;;
78336;SDS011;67610;51.588;7.002;2023-02-08T03:57:56;9.68;;;4.88;;
78336;SDS011;67610;51.588;7.002;2023-02-08T04:00:25;8.82;;;4.47;;
78336;SDS011;67610;51.588;7.002;2023-02-08T04:05:32;9.68;;;4.65;;
78336;SDS011;67610;51.588;7.002;2023-02-08T04:07:58;10.00;;;4.65;;
78336;SDS011;67610;51.588;7.002;2023-02-08T04:10:24;8.65;;;4.68;;
78336;SDS011;67610;51.588;7.002;2023-02-08T04:12:50;9.00;;;4.97;;
78336;SDS011;67610;51.588;7.002;2023-02-08T04:15:15;9.27;;;4.72;;
78336;SDS011;67610;51.588;7.002;2023-02-08T04:17:41;10.38;;;5.47;;
78336;SDS011;67610;51.588;7.002;2023-02-08T04:20:07;12.63;;;4.68;;
78336;SDS011;67610;51.588;7.002;2023-02-08T04:22:33;9.05;;;4.93;;
78336;SDS011;67610;51.588;7.002;2023-02-08T04:24:58;10.45;;;5.07;;
78336;SDS011;67610;51.588;7.002;2023-02-08T04:27:24;11.30;;;5.00;;
78336;SDS011;67610;51.588;7.002;2023-02-08T04:29:50;10.57;;;4.93;;
78336;SDS011;67610;51.588;7.002;2023-02-08T04:32:15;13.10;;;5.72;;
78336;SDS011;67610;51.588;7.002;2023-02-08T04:34:41;10.07;;;5.00;;
78336;SDS011;67610;51.588;7.002;2023-02-08T04:37:07;10.98;;;5.90;;
78336;SDS011;67610;51.588;7.002;2023-02-08T04:39:33;11.15;;;5.95;;
78336;SDS011;67610;51.588;7.002;2023-02-08T04:42:01;8.82;;;5.40;;
78336;SDS011;67610;51.588;7.002;2023-02-08T04:44:27;9.63;;;5.65;;
78336;SDS011;67610;51.588;7.002;2023-02-08T04:46:52;12.32;;;6.07;;
78336;SDS011;67610;51.588;7.002;2023-02-08T04:49:18;10.65;;;4.97;;
78336;SDS011;67610;51.588;7.002;2023-02-08T04:51:43;10.95;;;5.18;;
78336;SDS011;67610;51.588;7.002;2023-02-08T04:54:09;14.20;;;5.57;;
78336;SDS011;67610;51.588;7.002;2023-02-08T04:56:34;12.25;;;5.75;;
78336;SDS011;67610;51.588;7.002;2023-02-08T04:59:00;10.63;;;5.38;;
78336;SDS011;67610;51.588;7.002;2023-02-08T05:01:26;10.20;;;5.60;;
78336;SDS011;67610;51.588;7.002;2023-02-08T05:03:52;12.65;;;5.80;;
78336;SDS011;67610;51.588;7.002;2023-02-08T05:06:17;10.35;;;5.07;;
78336;SDS011;67610;51.588;7.002;2023-02-08T05:08:43;12.15;;;5.65;;
78336;SDS011;67610;51.588;7.002;2023-02-08T05:11:09;7.90;;;5.40;;
78336;SDS011;67610;51.588;7.002;2023-02-08T05:13:34;11.50;;;6.07;;
78336;SDS011;67610;51.588;7.002;2023-02-08T05:15:59;12.77;;;6.80;;
78336;SDS011;67610;51.588;7.002;2023-02-08T05:18:25;13.68;;;6.28;;
78336;SDS011;67610;51.588;7.002;2023-02-08T05:20:58;15.32;;;6.95;;
78336;SDS011;67610;51.588;7.002;2023-02-08T05:23:25;12.27;;;6.18;;
78336;SDS011;67610;51.588;7.002;2023-02-08T05:25:51;21.15;;;7.70;;
78336;SDS011;67610;51.588;7.002;2023-02-08T05:28:17;12.02;;;5.90;;
78336;SDS011;67610;51.588;7.002;2023-02-08T05:30:43;15.27;;;6.22;;
78336;SDS011;67610;51.588;7.002;2023-02-08T05:33:10;23.25;;;8.57;;
78336;SDS011;67610;51.588;7.002;2023-02-08T05:35:35;30.33;;;10.90;;
78336;SDS011;67610;51.588;7.002;2023-02-08T05:38:01;27.23;;;9.82;;
78336;SDS011;67610;51.588;7.002;2023-02-08T05:40:26;31.10;;;11.15;;
78336;SDS011;67610;51.588;7.002;2023-02-08T05:42:52;27.80;;;9.82;;
78336;SDS011;67610;51.588;7.002;2023-02-08T05:45:17;32.30;;;10.40;;
78336;SDS011;67610;51.588;7.002;2023-02-08T05:47:43;28.23;;;10.05;;
78336;SDS011;67610;51.588;7.002;2023-02-08T05:50:08;25.20;;;8.77;;
78336;SDS011;67610;51.588;7.002;2023-02-08T05:52:34;23.00;;;8.77;;
78336;SDS011;67610;51.588;7.002;2023-02-08T05:54:59;19.67;;;7.38;;
78336;SDS011;67610;51.588;7.002;2023-02-08T05:57:25;19.52;;;8.50;;
78336;SDS011;67610;51.588;7.002;2023-02-08T05:59:50;27.58;;;9.23;;
78336;SDS011;67610;51.588;7.002;2023-02-08T06:02:16;19.90;;;7.65;;
78336;SDS011;67610;51.588;7.002;2023-02-08T06:04:41;14.02;;;6.30;;
78336;SDS011;67610;51.588;7.002;2023-02-08T06:07:07;14.80;;;6.05;;
78336;SDS011;67610;51.588;7.002;2023-02-08T06:09:32;18.13;;;7.22;;
78336;SDS011;67610;51.588;7.002;2023-02-08T06:11:57;23.02;;;9.40;;
78336;SDS011;67610;51.588;7.002;2023-02-08T06:14:23;18.10;;;7.50;;
78336;SDS011;67610;51.588;7.002;2023-02-08T06:16:49;16.55;;;7.22;;
78336;SDS011;67610;51.588;7.002;2023-02-08T06:19:14;11.70;;;5.78;;
78336;SDS011;67610;51.588;7.002;2023-02-08T06:21:39;8.15;;;4.57;;
78336;SDS011;67610;51.588;7.002;2023-02-08T06:24:06;12.88;;;5.18;;
78336;SDS011;67610;51.588;7.002;2023-02-08T06:26:32;9.43;;;5.45;;
78336;SDS011;67610;51.588;7.002;2023-02-08T06:28:58;8.88;;;4.60;;
78336;SDS011;67610;51.588;7.002;2023-02-08T06:31:23;9.77;;;4.50;;
78336;SDS011;67610;51.588;7.002;2023-02-08T06:33:49;8.85;;;4.57;;
78336;SDS011;67610;51.588;7.002;2023-02-08T06:36:14;7.03;;;4.40;;
78336;SDS011;67610;51.588;7.002;2023-02-08T06:38:40;10.95;;;4.68;;
78336;SDS011;67610;51.588;7.002;2023-02-08T06:41:05;9.18;;;4.35;;
78336;SDS011;67610;51.588;7.002;2023-02-08T06:43:31;8.32;;;4.78;;
78336;SDS011;67610;51.588;7.002;2023-02-08T06:45:56;7.80;;;4.38;;
78336;SDS011;67610;51.588;7.002;2023-02-08T06:48:21;8.70;;;4.45;;
78336;SDS011;67610;51.588;7.002;2023-02-08T06:50:47;9.93;;;4.75;;
78336;SDS011;67610;51.588;7.002;2023-02-08T06:53:12;10.52;;;4.90;;
78336;SDS011;67610;51.588;7.002;2023-02-08T06:55:38;9.43;;;4.80;;
78336;SDS011;67610;51.588;7.002;2023-02-08T06:58:04;8.45;;;4.68;;
78336;SDS011;67610;51.588;7.002;2023-02-08T07:00:29;9.13;;;4.93;;
78336;SDS011;67610;51.588;7.002;2023-02-08T07:02:55;8.23;;;4.05;;
78336;SDS011;67610;51.588;7.002;2023-02-08T07:05:20;9.13;;;4.80;;
78336;SDS011;67610;51.588;7.002;2023-02-08T07:07:46;9.23;;;4.47;;
78336;SDS011;67610;51.588;7.002;2023-02-08T07:10:13;10.70;;;5.03;;
78336;SDS011;67610;51.588;7.002;2023-02-08T07:12:39;10.55;;;5.45;;
78336;SDS011;67610;51.588;7.002;2023-02-08T07:15:04;9.57;;;4.32;;
78336;SDS011;67610;51.588;7.002;2023-02-08T07:17:30;14.10;;;5.47;;
78336;SDS011;67610;51.588;7.002;2023-02-08T07:19:55;10.93;;;5.60;;
78336;SDS011;67610;51.588;7.002;2023-02-08T07:22:21;11.48;;;6.13;;
78336;SDS011;67610;51.588;7.002;2023-02-08T07:24:46;10.65;;;5.45;;
78336;SDS011;67610;51.588;7.002;2023-02-08T07:27:12;11.15;;;5.70;;
78336;SDS011;67610;51.588;7.002;2023-02-08T07:29:38;10.60;;;5.53;;
78336;SDS011;67610;51.588;7.002;2023-02-08T07:32:04;10.10;;;4.88;;
78336;SDS011;67610;51.588;7.002;2023-02-08T07:34:32;12.02;;;5.57;;
78336;SDS011;67610;51.588;7.002;2023-02-08T07:36:59;9.75;;;5.05;;
78336;SDS011;67610;51.588;7.002;2023-02-08T07:39:24;11.85;;;5.05;;
78336;SDS011;67610;51.588;7.002;2023-02-08T07:41:50;10.23;;;5.40;;
78336;SDS011;67610;51.588;7.002;2023-02-08T07:44:16;8.63;;;5.03;;
78336;SDS011;67610;51.588;7.002;2023-02-08T07:46:41;10.25;;;5.10;;
78336;SDS011;67610;51.588;7.002;2023-02-08T07:49:07;10.50;;;4.78;;
78336;SDS011;67610;51.588;7.002;2023-02-08T07:51:33;9.20;;;4.88;;
78336;SDS011;67610;51.588;7.002;2023-02-08T07:53:58;9.82;;;4.90;;
78336;SDS011;67610;51.588;7.002;2023-02-08T07:56:23;10.02;;;5.30;;
78336;SDS011;67610;51.588;7.002;2023-02-08T07:58:49;11.05;;;5.30;;
78336;SDS011;67610;51.588;7.002;2023-02-08T08:01:14;12.32;;;5.78;;
78336;SDS011;67610;51.588;7.002;2023-02-08T08:03:40;12.23;;;5.32;;
78336;SDS011;67610;51.588;7.002;2023-02-08T08:06:05;11.55;;;5.32;;
78336;SDS011;67610;51.588;7.002;2023-02-08T08:08:31;9.45;;;4.68;;
78336;SDS011;67610;51.588;7.002;2023-02-08T08:10:56;10.77;;;5.18;;
78336;SDS011;67610;51.588;7.002;2023-02-08T08:13:22;11.13;;;5.75;;
78336;SDS011;67610;51.588;7.002;2023-02-08T08:15:47;8.20;;;5.13;;
78336;SDS011;67610;51.588;7.002;2023-02-08T08:18:13;11.98;;;5.63;;
78336;SDS011;67610;51.588;7.002;2023-02-08T08:20:39;10.38;;;5.47;;
78336;SDS011;67610;51.588;7.002;2023-02-08T08:23:04;12.45;;;5.78;;
78336;SDS011;67610;51.588;7.002;2023-02-08T08:25:30;8.55;;;4.57;;
78336;SDS011;67610;51.588;7.002;2023-02-08T08:27:55;10.48;;;5.47;;
78336;SDS011;67610;51.588;7.002;2023-02-08T08:30:21;11.50;;;6.13;;
78336;SDS011;67610;51.588;7.002;2023-02-08T08:32:47;12.70;;;5.78;;
78336;SDS011;67610;51.588;7.002;2023-02-08T08:35:12;8.82;;;5.15;;
78336;SDS011;67610;51.588;7.002;2023-02-08T08:37:38;12.13;;;6.32;;
78336;SDS011;67610;51.588;7.002;2023-02-08T08:40:04;11.60;;;7.13;;
78336;SDS011;67610;51.588;7.002;2023-02-08T08:42:31;10.38;;;5.78;;
78336;SDS011;67610;51.588;7.002;2023-02-08T08:44:57;11.77;;;5.50;;
78336;SDS011;67610;51.588;7.002;2023-02-08T08:47:23;12.00;;;6.05;;
78336;SDS011;67610;51.588;7.002;2023-02-08T08:49:48;11.10;;;5.43;;
78336;SDS011;67610;51.588;7.002;2023-02-08T08:52:14;11.10;;;5.75;;
78336;SDS011;67610;51.588;7.002;2023-02-08T08:54:39;11.43;;;5.43;;
78336;SDS011;67610;51.588;7.002;2023-02-08T08:57:05;8.73;;;5.38;;
78336;SDS011;67610;51.588;7.002;2023-02-08T08:59:31;13.23;;;5.65;;
78336;SDS011;67610;51.588;7.002;2023-02-08T09:01:59;8.82;;;5.25;;
78336;SDS011;67610;51.588;7.002;2023-02-08T09:04:24;9.00;;;5.18;;
78336;SDS011;67610;51.588;7.002;2023-02-08T09:06:50;8.43;;;5.03;;
78336;SDS011;67610;51.588;7.002;2023-02-08T09:09:17;9.55;;;4.95;;
78336;SDS011;67610;51.588;7.002;2023-02-08T09:11:44;11.02;;;6.20;;
78336;SDS011;67610;51.588;7.002;2023-02-08T09:14:09;10.65;;;5.50;;
78336;SDS011;67610;51.588;7.002;2023-02-08T09:16:35;11.13;;;5.30;;
78336;SDS011;67610;51.588;7.002;2023-02-08T09:19:02;9.73;;;4.75;;
78336;SDS011;67610;51.588;7.002;2023-02-08T09:21:28;8.25;;;4.57;;
78336;SDS011;67610;51.588;7.002;2023-02-08T09:23:54;8.23;;;5.03;;
78336;SDS011;67610;51.588;7.002;2023-02-08T09:26:20;9.40;;;4.95;;
78336;SDS011;67610;51.588;7.002;2023-02-08T09:28:48;8.13;;;4.72;;
78336;SDS011;67610;51.588;7.002;2023-02-08T09:33:44;7.97;;;4.25;;
78336;SDS011;67610;51.588;7.002;2023-02-08T09:36:10;10.55;;;5.20;;
78336;SDS011;67610;51.588;7.002;2023-02-08T09:38:36;8.35;;;4.45;;
78336;SDS011;67610;51.588;7.002;2023-02-08T09:41:06;8.50;;;4.43;;
78336;SDS011;67610;51.588;7.002;2023-02-08T09:46:31;6.90;;;3.90;;
78336;SDS011;67610;51.588;7.002;2023-02-08T09:49:00;7.63;;;4.20;;
78336;SDS011;67610;51.588;7.002;2023-02-08T09:51:46;6.82;;;3.80;;
78336;SDS011;67610;51.588;7.002;2023-02-08T09:54:20;7.97;;;3.97;;
78336;SDS011;67610;51.588;7.002;2023-02-08T09:56:49;5.68;;;3.22;;
78336;SDS011;67610;51.588;7.002;2023-02-08T09:59:23;8.48;;;4.20;;
78336;SDS011;67610;51.588;7.002;2023-02-08T10:07:30;8.15;;;3.75;;
78336;SDS011;67610;51.588;7.002;2023-02-08T10:09:59;5.25;;;3.47;;
78336;SDS011;67610;51.588;7.002;2023-02-08T10:15:12;4.80;;;3.20;;
78336;SDS011;67610;51.588;7.002;2023-02-08T10:26:31;8.38;;;3.20;;
78336;SDS011;67610;51.588;7.002;2023-02-08T10:37:31;6.22;;;3.05;;
78336;SDS011;67610;51.588;7.002;2023-02-08T10:39:59;4.70;;;2.78;;
78336;SDS011;67610;51.588;7.002;2023-02-08T10:42:38;5.10;;;3.05;;
78336;SDS011;67610;51.588;7.002;2023-02-08T10:45:14;6.80;;;3.10;;
78336;SDS011;67610;51.588;7.002;2023-02-08T10:47:49;4.93;;;3.30;;
78336;SDS011;67610;51.588;7.002;2023-02-08T10:50:21;5.10;;;2.90;;
78336;SDS011;67610;51.588;7.002;2023-02-08T10:52:54;6.20;;;3.10;;
78336;SDS011;67610;51.588;7.002;2023-02-08T10:55:20;5.50;;;3.20;;
78336;SDS011;67610;51.588;7.002;2023-02-08T10:57:46;5.95;;;3.30;;
78336;SDS011;67610;51.588;7.002;2023-02-08T11:00:20;7.20;;;3.40;;
78336;SDS011;67610;51.588;7.002;2023-02-08T11:02:49;5.47;;;3.08;;
78336;SDS011;67610;51.588;7.002;2023-02-08T11:05:17;6.10;;;3.25;;
78336;SDS011;67610;51.588;7.002;2023-02-08T11:08:03;4.68;;;3.30;;
78336;SDS011;67610;51.588;7.002;2023-02-08T11:10:31;4.05;;;2.58;;
78336;SDS011;67610;51.588;7.002;2023-02-08T11:13:31;4.70;;;3.03;;
78336;SDS011;67610;51.588;7.002;2023-02-08T11:15:55;5.22;;;3.13;;
78336;SDS011;67610;51.588;7.002;2023-02-08T11:18:23;5.00;;;3.33;;
78336;SDS011;67610;51.588;7.002;2023-02-08T11:20:51;4.40;;;2.70;;
78336;SDS011;67610;51.588;7.002;2023-02-08T11:23:20;4.57;;;2.88;;
78336;SDS011;67610;51.588;7.002;2023-02-08T11:25:49;6.20;;;3.10;;
78336;SDS011;67610;51.588;7.002;2023-02-08T11:28:22;7.13;;;3.53;;
78336;SDS011;67610;51.588;7.002;2023-02-08T11:30:57;6.28;;;3.47;;
78336;SDS011;67610;51.588;7.002;2023-02-08T11:33:30;5.05;;;3.15;;
78336;SDS011;67610;51.588;7.002;2023-02-08T11:38:24;6.30;;;3.03;;
78336;SDS011;67610;51.588;7.002;2023-02-08T11:40:52;5.32;;;2.97;;
78336;SDS011;67610;51.588;7.002;2023-02-08T11:43:21;5.55;;;3.03;;
78336;SDS011;67610;51.588;7.002;2023-02-08T11:45:50;5.75;;;2.92;;
78336;SDS011;67610;51.588;7.002;2023-02-08T11:48:41;5.88;;;2.70;;
78336;SDS011;67610;51.588;7.002;2023-02-08T11:51:03;4.63;;;2.72;;
78336;SDS011;67610;51.588;7.002;2023-02-08T11:53:31;5.03;;;2.60;;
78336;SDS011;67610;51.588;7.002;2023-02-08T11:58:32;5.30;;;2.70;;
78336;SDS011;67610;51.588;7.002;2023-02-08T12:00:59;5.57;;;2.90;;
78336;SDS011;67610;51.588;7.002;2023-02-08T12:11:25;4.95;;;3.03;;
78336;SDS011;67610;51.588;7.002;2023-02-08T12:22:06;4.57;;;2.67;;
78336;SDS011;67610;51.588;7.002;2023-02-08T12:29:59;6.57;;;2.88;;
78336;SDS011;67610;51.588;7.002;2023-02-08T12:54:43;6.70;;;3.17;;
78336;SDS011;67610;51.588;7.002;2023-02-08T12:57:15;5.40;;;2.90;;
78336;SDS011;67610;51.588;7.002;2023-02-08T13:05:14;4.80;;;2.60;;
78336;SDS011;67610;51.588;7.002;2023-02-08T13:07:43;4.55;;;2.60;;
78336;SDS011;67610;51.588;7.002;2023-02-08T13:12:50;5.60;;;3.20;;
78336;SDS011;67610;51.588;7.002;2023-02-08T13:15:24;4.88;;;2.95;;
78336;SDS011;67610;51.588;7.002;2023-02-08T13:17:57;6.03;;;3.25;;
78336;SDS011;67610;51.588;7.002;2023-02-08T13:23:36;4.38;;;2.75;;
78336;SDS011;67610;51.588;7.002;2023-02-08T13:26:16;5.15;;;2.90;;
78336;SDS011;67610;51.588;7.002;2023-02-08T13:28:55;7.15;;;3.15;;
78336;SDS011;67610;51.588;7.002;2023-02-08T13:31:26;3.88;;;2.53;;
78336;SDS011;67610;51.588;7.002;2023-02-08T13:34:04;4.85;;;2.50;;
78336;SDS011;67610;51.588;7.002;2023-02-08T13:36:41;4.75;;;2.60;;
78336;SDS011;67610;51.588;7.002;2023-02-08T13:42:16;4.30;;;2.50;;
78336;SDS011;67610;51.588;7.002;2023-02-08T13:44:48;7.60;;;3.20;;
78336;SDS011;67610;51.588;7.002;2023-02-08T13:47:23;5.05;;;2.70;;
78336;SDS011;67610;51.588;7.002;2023-02-08T13:49:58;5.68;;;2.70;;
78336;SDS011;67610;51.588;7.002;2023-02-08T13:57:55;6.07;;;2.75;;
78336;SDS011;67610;51.588;7.002;2023-02-08T14:11:17;5.60;;;2.63;;
78336;SDS011;67610;51.588;7.002;2023-02-08T14:14:28;5.35;;;2.92;;
78336;SDS011;67610;51.588;7.002;2023-02-08T14:16:42;5.55;;;3.00;;
78336;SDS011;67610;51.588;7.002;2023-02-08T14:24:18;4.80;;;2.72;;
78336;SDS011;67610;51.588;7.002;2023-02-08T14:26:47;4.72;;;2.53;;
78336;SDS011;67610;51.588;7.002;2023-02-08T14:29:21;5.63;;;3.45;;
78336;SDS011;67610;51.588;7.002;2023-02-08T14:31:48;5.53;;;2.88;;
78336;SDS011;67610;51.588;7.002;2023-02-08T14:34:27;6.00;;;2.85;;
78336;SDS011;67610;51.588;7.002;2023-02-08T14:37:01;5.15;;;3.08;;
78336;SDS011;67610;51.588;7.002;2023-02-08T14:39:49;5.38;;;3.10;;
78336;SDS011;67610;51.588;7.002;2023-02-08T14:50:35;4.90;;;2.60;;
78336;SDS011;67610;51.588;7.002;2023-02-08T14:53:27;3.50;;;2.35;;
78336;SDS011;67610;51.588;7.002;2023-02-08T14:58:36;5.35;;;2.92;;
78336;SDS011;67610;51.588;7.002;2023-02-08T15:01:06;4.22;;;2.67;;
78336;SDS011;67610;51.588;7.002;2023-02-08T15:03:49;4.90;;;2.80;;
78336;SDS011;67610;51.588;7.002;2023-02-08T15:11:41;6.03;;;3.00;;
78336;SDS011;67610;51.588;7.002;2023-02-08T15:14:06;6.20;;;3.03;;
78336;SDS011;67610;51.588;7.002;2023-02-08T15:16:43;5.30;;;3.00;;
78336;SDS011;67610;51.588;7.002;2023-02-08T15:19:12;4.97;;;3.03;;
78336;SDS011;67610;51.588;7.002;2023-02-08T15:21:46;5.28;;;2.83;;
78336;SDS011;67610;51.588;7.002;2023-02-08T15:24:16;5.13;;;2.97;;
78336;SDS011;67610;51.588;7.002;2023-02-08T15:26:48;4.43;;;2.90;;
78336;SDS011;67610;51.588;7.002;2023-02-08T15:29:20;4.55;;;2.70;;
78336;SDS011;67610;51.588;7.002;2023-02-08T15:31:50;5.70;;;3.20;;
78336;SDS011;67610;51.588;7.002;2023-02-08T15:34:17;6.07;;;3.08;;
78336;SDS011;67610;51.588;7.002;2023-02-08T15:36:51;5.93;;;2.92;;
78336;SDS011;67610;51.588;7.002;2023-02-08T15:41:57;5.63;;;3.00;;
78336;SDS011;67610;51.588;7.002;2023-02-08T15:44:24;5.53;;;3.40;;
78336;SDS011;67610;51.588;7.002;2023-02-08T15:46:54;6.15;;;2.70;;
78336;SDS011;67610;51.588;7.002;2023-02-08T15:49:30;6.25;;;3.03;;
78336;SDS011;67610;51.588;7.002;2023-02-08T15:51:56;6.22;;;3.60;;
78336;SDS011;67610;51.588;7.002;2023-02-08T15:54:22;6.80;;;3.20;;
78336;SDS011;67610;51.588;7.002;2023-02-08T15:59:23;6.78;;;3.15;;
78336;SDS011;67610;51.588;7.002;2023-02-08T16:01:52;6.25;;;3.20;;
78336;SDS011;67610;51.588;7.002;2023-02-08T16:04:18;6.18;;;3.15;;
78336;SDS011;67610;51.588;7.002;2023-02-08T16:06:48;6.38;;;3.40;;
78336;SDS011;67610;51.588;7.002;2023-02-08T16:09:25;6.35;;;3.22;;
78336;SDS011;67610;51.588;7.002;2023-02-08T16:11:57;6.38;;;3.20;;
78336;SDS011;67610;51.588;7.002;2023-02-08T16:14:24;6.90;;;3.40;;
78336;SDS011;67610;51.588;7.002;2023-02-08T16:16:55;6.28;;;3.05;;
78336;SDS011;67610;51.588;7.002;2023-02-08T16:19:23;5.93;;;3.42;;
78336;SDS011;67610;51.588;7.002;2023-02-08T16:21:54;6.70;;;3.40;;
78336;SDS011;67610;51.588;7.002;2023-02-08T16:24:40;6.72;;;3.10;;
78336;SDS011;67610;51.588;7.002;2023-02-08T16:27:14;8.48;;;3.10;;
78336;SDS011;67610;51.588;7.002;2023-02-08T16:29:46;7.53;;;3.85;;
78336;SDS011;67610;51.588;7.002;2023-02-08T16:32:28;8.00;;;4.25;;
78336;SDS011;67610;51.588;7.002;2023-02-08T16:34:56;7.95;;;4.20;;
78336;SDS011;67610;51.588;7.002;2023-02-08T16:37:26;7.35;;;3.58;;
78336;SDS011;67610;51.588;7.002;2023-02-08T16:42:31;6.90;;;3.38;;
78336;SDS011;67610;51.588;7.002;2023-02-08T16:47:57;6.18;;;3.35;;
78336;SDS011;67610;51.588;7.002;2023-02-08T16:50:26;6.10;;;3.28;;
78336;SDS011;67610;51.588;7.002;2023-02-08T16:52:57;5.53;;;2.95;;
78336;SDS011;67610;51.588;7.002;2023-02-08T16:55:27;6.57;;;3.30;;
78336;SDS011;67610;51.588;7.002;2023-02-08T16:57:56;6.13;;;3.00;;
78336;SDS011;67610;51.588;7.002;2023-02-08T17:00:27;5.85;;;3.00;;
78336;SDS011;67610;51.588;7.002;2023-02-08T17:02:54;7.10;;;3.15;;
78336;SDS011;67610;51.588;7.002;2023-02-08T17:05:21;5.78;;;3.10;;
78336;SDS011;67610;51.588;7.002;2023-02-08T17:07:48;6.20;;;3.00;;
78336;SDS011;67610;51.588;7.002;2023-02-08T17:10:17;6.70;;;3.22;;
78336;SDS011;67610;51.588;7.002;2023-02-08T17:12:45;5.40;;;3.13;;
78336;SDS011;67610;51.588;7.002;2023-02-08T17:15:10;6.00;;;3.05;;
78336;SDS011;67610;51.588;7.002;2023-02-08T17:17:35;5.43;;;3.38;;
78336;SDS011;67610;51.588;7.002;2023-02-08T17:20:01;5.60;;;3.30;;
78336;SDS011;67610;51.588;7.002;2023-02-08T17:22:26;7.05;;;3.22;;
78336;SDS011;67610;51.588;7.002;2023-02-08T17:24:52;6.40;;;3.55;;
78336;SDS011;67610;51.588;7.002;2023-02-08T17:27:17;10.18;;;4.35;;
78336;SDS011;67610;51.588;7.002;2023-02-08T17:29:43;7.05;;;4.55;;
78336;SDS011;67610;51.588;7.002;2023-02-08T17:32:08;8.32;;;4.22;;
78336;SDS011;67610;51.588;7.002;2023-02-08T17:34:34;7.70;;;4.07;;
78336;SDS011;67610;51.588;7.002;2023-02-08T17:37:00;6.80;;;3.92;;
78336;SDS011;67610;51.588;7.002;2023-02-08T17:39:26;6.70;;;3.78;;
78336;SDS011;67610;51.588;7.002;2023-02-08T17:41:51;8.38;;;3.70;;
78336;SDS011;67610;51.588;7.002;2023-02-08T17:44:17;7.97;;;3.35;;
78336;SDS011;67610;51.588;7.002;2023-02-08T17:46:43;7.45;;;3.30;;
78336;SDS011;67610;51.588;7.002;2023-02-08T17:49:08;7.13;;;3.65;;
78336;SDS011;67610;51.588;7.002;2023-02-08T17:51:34;9.10;;;4.15;;
78336;SDS011;67610;51.588;7.002;2023-02-08T17:54:02;9.57;;;3.95;;
78336;SDS011;67610;51.588;7.002;2023-02-08T17:56:29;4.80;;;3.17;;
78336;SDS011;67610;51.588;7.002;2023-02-08T17:58:59;9.02;;;4.25;;
78336;SDS011;67610;51.588;7.002;2023-02-08T18:24:03;6.35;;;3.65;;
78336;SDS011;67610;51.588;7.002;2023-02-08T18:26:30;6.75;;;3.42;;
78336;SDS011;67610;51.588;7.002;2023-02-08T18:28:59;7.70;;;3.38;;